Terminal Aerodrome Forecast
Issued by NWS

Home | Current Version | Previous Version | Graphics & Text | Print | Product List | Glossary On
Versions: 1 2 3 4 5 6 7 8 9 10 11 12 13 14 15 16 17 18
000
FTUS43 KGRB 280538
TAFMTW
TAF
KMTW 280538Z 2806/2906 36006KT P6SM VCSH SCT040 OVC080
      TEMPO 2806/2808 3SM TSRA BR BKN040CB
     FM280800 35007KT P6SM SCT015 OVC040
      TEMPO 2808/2812 4SM -SHRA BR BKN015
     FM281400 04009KT P6SM VCSH BKN035
     FM282000 03010KT P6SM BKN040
     FM290100 02008KT P6SM SCT040 BKN120=

USA.gov is the U.S. government's official web portal to all federal, state and local government web resources and services.